sensor_id;sensor_type;location;lat;lon;timestamp;pressure;altitude;pressure_sealevel;temperature;humidity
21956;BME280;11142;49.930;8.606;2023-04-25T00:01:36;99399.66;;;9.43;100.00
21956;BME280;11142;49.930;8.606;2023-04-25T00:04:04;99388.47;;;9.30;100.00
21956;BME280;11142;49.930;8.606;2023-04-25T00:06:33;99390.13;;;9.44;100.00
21956;BME280;11142;49.930;8.606;2023-04-25T00:09:02;99391.38;;;9.38;100.00
21956;BME280;11142;49.930;8.606;2023-04-25T00:11:33;99390.34;;;9.41;100.00
21956;BME280;11142;49.930;8.606;2023-04-25T00:14:01;99399.66;;;9.43;100.00
21956;BME280;11142;49.930;8.606;2023-04-25T00:16:31;99399.16;;;9.38;100.00
21956;BME280;11142;49.930;8.606;2023-04-25T00:19:01;99396.16;;;9.32;100.00
21956;BME280;11142;49.930;8.606;2023-04-25T00:21:29;99399.72;;;9.54;100.00
21956;BME280;11142;49.930;8.606;2023-04-25T00:23:58;99400.09;;;9.61;100.00
21956;BME280;11142;49.930;8.606;2023-04-25T00:26:26;99400.97;;;9.49;100.00
21956;BME280;11142;49.930;8.606;2023-04-25T00:28:55;99405.66;;;9.44;100.00
21956;BME280;11142;49.930;8.606;2023-04-25T00:31:24;99402.25;;;9.43;100.00
21956;BME280;11142;49.930;8.606;2023-04-25T00:33:53;99401.19;;;9.46;100.00
21956;BME280;11142;49.930;8.606;2023-04-25T00:36:21;99403.34;;;9.52;100.00
21956;BME280;11142;49.930;8.606;2023-04-25T00:38:49;99402.72;;;9.48;100.00
21956;BME280;11142;49.930;8.606;2023-04-25T00:41:17;99404.00;;;9.43;100.00
21956;BME280;11142;49.930;8.606;2023-04-25T00:43:46;99400.06;;;9.37;100.00
21956;BME280;11142;49.930;8.606;2023-04-25T00:46:15;99400.78;;;9.39;100.00
21956;BME280;11142;49.930;8.606;2023-04-25T00:48:44;99394.31;;;9.21;100.00
21956;BME280;11142;49.930;8.606;2023-04-25T00:51:16;99398.56;;;9.22;100.00
21956;BME280;11142;49.930;8.606;2023-04-25T00:53:44;99394.91;;;9.37;100.00
21956;BME280;11142;49.930;8.606;2023-04-25T00:56:13;99393.19;;;9.49;100.00
21956;BME280;11142;49.930;8.606;2023-04-25T00:58:42;99383.34;;;9.67;100.00
21956;BME280;11142;49.930;8.606;2023-04-25T01:01:10;99390.28;;;9.66;100.00
21956;BME280;11142;49.930;8.606;2023-04-25T01:03:39;99392.28;;;9.74;100.00
21956;BME280;11142;49.930;8.606;2023-04-25T01:06:10;99393.38;;;9.58;100.00
21956;BME280;11142;49.930;8.606;2023-04-25T01:08:40;99387.00;;;9.39;100.00
21956;BME280;11142;49.930;8.606;2023-04-25T01:11:11;99391.78;;;9.32;100.00
21956;BME280;11142;49.930;8.606;2023-04-25T01:13:39;99385.59;;;9.35;100.00
21956;BME280;11142;49.930;8.606;2023-04-25T01:16:07;99385.28;;;9.14;100.00
21956;BME280;11142;49.930;8.606;2023-04-25T01:18:38;99382.47;;;9.30;100.00
21956;BME280;11142;49.930;8.606;2023-04-25T01:21:08;99382.84;;;9.49;100.00
21956;BME280;11142;49.930;8.606;2023-04-25T01:23:37;99384.31;;;9.77;100.00
21956;BME280;11142;49.930;8.606;2023-04-25T01:26:05;99389.97;;;9.94;100.00
21956;BME280;11142;49.930;8.606;2023-04-25T01:28:34;99398.03;;;9.90;100.00
21956;BME280;11142;49.930;8.606;2023-04-25T01:31:02;99396.13;;;9.81;100.00
21956;BME280;11142;49.930;8.606;2023-04-25T01:33:30;99393.09;;;9.87;100.00
21956;BME280;11142;49.930;8.606;2023-04-25T01:35:59;99394.34;;;9.81;100.00
21956;BME280;11142;49.930;8.606;2023-04-25T01:38:29;99393.47;;;9.93;100.00
21956;BME280;11142;49.930;8.606;2023-04-25T01:40:59;99393.47;;;9.93;100.00
21956;BME280;11142;49.930;8.606;2023-04-25T01:43:27;99391.72;;;9.94;100.00
21956;BME280;11142;49.930;8.606;2023-04-25T01:45:55;99387.91;;;9.87;100.00
21956;BME280;11142;49.930;8.606;2023-04-25T01:48:24;99388.34;;;9.81;100.00
21956;BME280;11142;49.930;8.606;2023-04-25T01:50:52;99390.22;;;9.79;100.00
21956;BME280;11142;49.930;8.606;2023-04-25T01:53:22;99392.22;;;9.75;100.00
21956;BME280;11142;49.930;8.606;2023-04-25T01:55:53;99390.59;;;9.61;100.00
21956;BME280;11142;49.930;8.606;2023-04-25T01:58:24;99391.19;;;9.65;100.00
21956;BME280;11142;49.930;8.606;2023-04-25T02:01:10;99398.25;;;9.87;100.00
21956;BME280;11142;49.930;8.606;2023-04-25T02:03:45;99395.41;;;9.79;100.00
21956;BME280;11142;49.930;8.606;2023-04-25T02:06:25;99394.25;;;9.83;100.00
21956;BME280;11142;49.930;8.606;2023-04-25T02:08:56;99390.84;;;9.82;100.00
21956;BME280;11142;49.930;8.606;2023-04-25T02:11:25;99393.53;;;9.81;100.00
21956;BME280;11142;49.930;8.606;2023-04-25T02:14:12;99394.31;;;9.94;100.00
21956;BME280;11142;49.930;8.606;2023-04-25T02:16:49;99399.50;;;9.94;100.00
21956;BME280;11142;49.930;8.606;2023-04-25T02:19:18;99382.66;;;9.99;100.00
21956;BME280;11142;49.930;8.606;2023-04-25T02:21:46;99389.06;;;10.06;100.00
21956;BME280;11142;49.930;8.606;2023-04-25T02:24:14;99384.72;;;10.07;100.00
21956;BME280;11142;49.930;8.606;2023-04-25T02:26:43;99384.94;;;10.04;100.00
21956;BME280;11142;49.930;8.606;2023-04-25T02:29:13;99387.84;;;9.99;100.00
21956;BME280;11142;49.930;8.606;2023-04-25T02:31:41;99385.38;;;9.98;100.00
21956;BME280;11142;49.930;8.606;2023-04-25T02:34:09;99385.88;;;10.03;100.00
21956;BME280;11142;49.930;8.606;2023-04-25T02:36:37;99384.94;;;10.04;100.00
21956;BME280;11142;49.930;8.606;2023-04-25T02:39:06;99382.00;;;10.08;100.00
21956;BME280;11142;49.930;8.606;2023-04-25T02:41:33;99387.53;;;10.04;100.00
21956;BME280;11142;49.930;8.606;2023-04-25T02:44:03;99386.50;;;9.83;100.00
21956;BME280;11142;49.930;8.606;2023-04-25T02:46:30;99380.41;;;9.71;100.00
21956;BME280;11142;49.930;8.606;2023-04-25T02:49:03;99372.09;;;9.79;100.00
21956;BME280;11142;49.930;8.606;2023-04-25T02:51:31;99375.81;;;9.75;100.00
21956;BME280;11142;49.930;8.606;2023-04-25T02:53:59;99379.69;;;9.69;100.00
21956;BME280;11142;49.930;8.606;2023-04-25T02:56:28;99374.72;;;9.66;100.00
21956;BME280;11142;49.930;8.606;2023-04-25T02:58:56;99376.63;;;9.51;100.00
21956;BME280;11142;49.930;8.606;2023-04-25T03:01:26;99379.94;;;9.53;100.00
21956;BME280;11142;49.930;8.606;2023-04-25T03:03:54;99381.63;;;9.42;100.00
21956;BME280;11142;49.930;8.606;2023-04-25T03:06:23;99378.72;;;9.46;100.00
21956;BME280;11142;49.930;8.606;2023-04-25T03:08:51;99375.25;;;9.58;100.00
21956;BME280;11142;49.930;8.606;2023-04-25T03:11:19;99381.28;;;9.59;100.00
21956;BME280;11142;49.930;8.606;2023-04-25T03:13:47;99376.16;;;9.70;100.00
21956;BME280;11142;49.930;8.606;2023-04-25T03:16:16;99381.44;;;9.69;100.00
21956;BME280;11142;49.930;8.606;2023-04-25T03:18:45;99375.91;;;9.49;100.00
21956;BME280;11142;49.930;8.606;2023-04-25T03:21:13;99384.94;;;9.44;100.00
21956;BME280;11142;49.930;8.606;2023-04-25T03:23:41;99375.06;;;9.49;100.00
21956;BME280;11142;49.930;8.606;2023-04-25T03:26:09;99381.25;;;9.23;100.00
21956;BME280;11142;49.930;8.606;2023-04-25T03:28:37;99376.59;;;9.15;100.00
21956;BME280;11142;49.930;8.606;2023-04-25T03:31:06;99377.75;;;9.11;100.00
21956;BME280;11142;49.930;8.606;2023-04-25T03:33:34;99376.22;;;8.83;100.00
21956;BME280;11142;49.930;8.606;2023-04-25T03:36:03;99366.13;;;8.41;100.00
21956;BME280;11142;49.930;8.606;2023-04-25T03:38:31;99355.38;;;8.34;100.00
21956;BME280;11142;49.930;8.606;2023-04-25T03:41:00;99360.13;;;8.40;100.00
21956;BME280;11142;49.930;8.606;2023-04-25T03:43:38;99350.44;;;8.69;100.00
21956;BME280;11142;49.930;8.606;2023-04-25T03:46:10;99354.38;;;8.87;100.00
21956;BME280;11142;49.930;8.606;2023-04-25T03:48:39;99359.66;;;8.61;100.00
21956;BME280;11142;49.930;8.606;2023-04-25T03:51:10;99371.53;;;8.50;100.00
21956;BME280;11142;49.930;8.606;2023-04-25T03:53:42;99371.59;;;7.97;100.00
21956;BME280;11142;49.930;8.606;2023-04-25T03:56:19;99364.28;;;8.03;100.00
21956;BME280;11142;49.930;8.606;2023-04-25T03:58:53;99363.88;;;7.70;100.00
21956;BME280;11142;49.930;8.606;2023-04-25T04:01:25;99357.22;;;7.66;100.00
21956;BME280;11142;49.930;8.606;2023-04-25T04:03:53;99357.69;;;7.59;100.00
21956;BME280;11142;49.930;8.606;2023-04-25T04:06:24;99365.44;;;7.59;100.00
21956;BME280;11142;49.930;8.606;2023-04-25T04:09:01;99359.09;;;7.64;100.00
21956;BME280;11142;49.930;8.606;2023-04-25T04:11:31;99368.78;;;7.61;100.00
21956;BME280;11142;49.930;8.606;2023-04-25T04:13:59;99366.13;;;7.75;100.00
21956;BME280;11142;49.930;8.606;2023-04-25T04:16:28;99372.28;;;7.86;100.00
21956;BME280;11142;49.930;8.606;2023-04-25T04:19:00;99381.16;;;7.82;100.00
21956;BME280;11142;49.930;8.606;2023-04-25T04:21:30;99377.81;;;7.80;100.00
21956;BME280;11142;49.930;8.606;2023-04-25T04:23:58;99389.78;;;7.69;100.00
21956;BME280;11142;49.930;8.606;2023-04-25T04:26:31;99393.00;;;7.58;100.00
21956;BME280;11142;49.930;8.606;2023-04-25T04:29:10;99391.25;;;7.59;100.00
21956;BME280;11142;49.930;8.606;2023-04-25T04:31:45;99396.09;;;7.51;100.00
21956;BME280;11142;49.930;8.606;2023-04-25T04:34:13;99400.69;;;7.45;100.00
21956;BME280;11142;49.930;8.606;2023-04-25T04:36:45;99409.81;;;7.51;100.00
21956;BME280;11142;49.930;8.606;2023-04-25T04:39:13;99410.75;;;7.36;100.00
21956;BME280;11142;49.930;8.606;2023-04-25T04:41:59;99420.91;;;7.25;100.00
21956;BME280;11142;49.930;8.606;2023-04-25T04:44:47;99422.66;;;7.10;100.00
21956;BME280;11142;49.930;8.606;2023-04-25T04:47:43;99437.03;;;7.00;100.00
21956;BME280;11142;49.930;8.606;2023-04-25T04:50:31;99451.84;;;6.97;100.00
21956;BME280;11142;49.930;8.606;2023-04-25T04:53:11;99458.03;;;6.94;100.00
21956;BME280;11142;49.930;8.606;2023-04-25T04:55:58;99459.84;;;6.92;100.00
21956;BME280;11142;49.930;8.606;2023-04-25T04:58:47;99470.91;;;6.94;100.00
21956;BME280;11142;49.930;8.606;2023-04-25T05:01:33;99469.97;;;6.95;100.00
21956;BME280;11142;49.930;8.606;2023-04-25T05:04:23;99471.09;;;7.05;100.00
21956;BME280;11142;49.930;8.606;2023-04-25T05:07:26;99470.84;;;7.10;100.00
21956;BME280;11142;49.930;8.606;2023-04-25T05:10:10;99471.22;;;7.04;100.00
21956;BME280;11142;49.930;8.606;2023-04-25T05:13:01;99479.84;;;7.03;100.00
21956;BME280;11142;49.930;8.606;2023-04-25T05:15:56;99484.38;;;6.99;100.00
21956;BME280;11142;49.930;8.606;2023-04-25T05:18:45;99497.50;;;6.94;100.00
21956;BME280;11142;49.930;8.606;2023-04-25T05:21:26;99492.75;;;7.17;100.00
21956;BME280;11142;49.930;8.606;2023-04-25T05:24:08;99498.97;;;7.28;100.00
21956;BME280;11142;49.930;8.606;2023-04-25T05:27:07;99500.72;;;7.28;100.00
21956;BME280;11142;49.930;8.606;2023-04-25T05:29:44;99501.91;;;7.22;100.00
21956;BME280;11142;49.930;8.606;2023-04-25T05:32:22;99507.63;;;7.27;100.00
21956;BME280;11142;49.930;8.606;2023-04-25T05:35:36;99505.97;;;7.40;100.00
21956;BME280;11142;49.930;8.606;2023-04-25T05:38:17;99509.28;;;7.57;100.00
21956;BME280;11142;49.930;8.606;2023-04-25T05:41:04;99510.22;;;7.70;100.00
21956;BME280;11142;49.930;8.606;2023-04-25T05:43:45;99509.34;;;7.83;100.00
21956;BME280;11142;49.930;8.606;2023-04-25T05:46:39;99519.31;;;7.61;100.00
21956;BME280;11142;49.930;8.606;2023-04-25T05:49:40;99526.81;;;7.66;100.00
21956;BME280;11142;49.930;8.606;2023-04-25T05:52:39;99527.72;;;7.79;100.00
21956;BME280;11142;49.930;8.606;2023-04-25T05:55:55;99537.34;;;8.32;100.00
21956;BME280;11142;49.930;8.606;2023-04-25T05:58:27;99533.38;;;8.12;100.00
21956;BME280;11142;49.930;8.606;2023-04-25T06:01:22;99540.00;;;8.71;100.00
21956;BME280;11142;49.930;8.606;2023-04-25T06:04:18;99538.88;;;8.48;100.00
21956;BME280;11142;49.930;8.606;2023-04-25T06:06:56;99540.34;;;8.12;100.00
21956;BME280;11142;49.930;8.606;2023-04-25T06:09:39;99547.72;;;8.18;100.00
21956;BME280;11142;49.930;8.606;2023-04-25T06:12:12;99550.84;;;8.09;100.00
21956;BME280;11142;49.930;8.606;2023-04-25T06:15:02;99549.53;;;8.16;100.00
21956;BME280;11142;49.930;8.606;2023-04-25T06:17:55;99549.31;;;8.74;100.00
21956;BME280;11142;49.930;8.606;2023-04-25T06:21:16;99550.09;;;8.62;100.00
21956;BME280;11142;49.930;8.606;2023-04-25T06:23:51;99550.84;;;9.03;100.00
21956;BME280;11142;49.930;8.606;2023-04-25T06:26:28;99553.09;;;8.95;100.00
21956;BME280;11142;49.930;8.606;2023-04-25T06:29:06;99555.31;;;8.47;100.00
21956;BME280;11142;49.930;8.606;2023-04-25T06:31:39;99548.19;;;8.78;100.00
21956;BME280;11142;49.930;8.606;2023-04-25T06:34:14;99552.66;;;8.88;100.00
21956;BME280;11142;49.930;8.606;2023-04-25T06:36:47;99552.53;;;9.42;100.00
21956;BME280;11142;49.930;8.606;2023-04-25T06:39:20;99550.31;;;9.11;100.00
21956;BME280;11142;49.930;8.606;2023-04-25T06:41:56;99545.06;;;9.37;100.00
21956;BME280;11142;49.930;8.606;2023-04-25T06:44:59;99545.66;;;10.04;100.00
21956;BME280;11142;49.930;8.606;2023-04-25T06:47:31;99558.50;;;9.93;100.00
21956;BME280;11142;49.930;8.606;2023-04-25T06:53:29;99567.13;;;9.81;100.00
21956;BME280;11142;49.930;8.606;2023-04-25T06:56:57;99569.63;;;9.82;100.00
21956;BME280;11142;49.930;8.606;2023-04-25T06:59:32;99563.16;;;10.00;100.00
21956;BME280;11142;49.930;8.606;2023-04-25T07:02:02;99573.66;;;9.74;100.00
21956;BME280;11142;49.930;8.606;2023-04-25T07:04:31;99563.00;;;10.40;100.00
21956;BME280;11142;49.930;8.606;2023-04-25T07:07:14;99569.47;;;10.58;100.00
21956;BME280;11142;49.930;8.606;2023-04-25T07:09:57;99574.25;;;9.90;100.00
21956;BME280;11142;49.930;8.606;2023-04-25T07:13:02;99566.00;;;9.59;100.00
21956;BME280;11142;49.930;8.606;2023-04-25T07:15:31;99567.75;;;9.84;100.00
21956;BME280;11142;49.930;8.606;2023-04-25T07:18:02;99572.38;;;10.30;100.00
21956;BME280;11142;49.930;8.606;2023-04-25T07:20:46;99569.56;;;10.33;100.00
21956;BME280;11142;49.930;8.606;2023-04-25T07:23:18;99574.50;;;10.48;100.00
21956;BME280;11142;49.930;8.606;2023-04-25T07:25:53;99578.91;;;10.23;100.00
21956;BME280;11142;49.930;8.606;2023-04-25T07:28:24;99579.75;;;10.23;100.00
21956;BME280;11142;49.930;8.606;2023-04-25T07:30:53;99584.00;;;9.23;100.00
21956;BME280;11142;49.930;8.606;2023-04-25T07:33:24;99582.84;;;9.15;100.00
21956;BME280;11142;49.930;8.606;2023-04-25T07:35:53;99575.66;;;9.57;100.00
21956;BME280;11142;49.930;8.606;2023-04-25T07:38:36;99580.63;;;9.86;100.00
21956;BME280;11142;49.930;8.606;2023-04-25T07:41:10;99593.03;;;9.81;100.00
21956;BME280;11142;49.930;8.606;2023-04-25T07:43:57;99596.25;;;11.17;100.00
21956;BME280;11142;49.930;8.606;2023-04-25T07:46:34;99589.72;;;10.53;100.00
21956;BME280;11142;49.930;8.606;2023-04-25T07:49:05;99602.56;;;10.91;100.00
21956;BME280;11142;49.930;8.606;2023-04-25T07:51:42;99598.78;;;10.35;100.00
21956;BME280;11142;49.930;8.606;2023-04-25T07:54:18;99603.28;;;10.33;100.00
21956;BME280;11142;49.930;8.606;2023-04-25T07:57:05;99611.78;;;10.09;100.00
21956;BME280;11142;49.930;8.606;2023-04-25T07:59:37;99614.50;;;11.28;100.00
21956;BME280;11142;49.930;8.606;2023-04-25T08:02:49;99622.16;;;9.97;100.00
21956;BME280;11142;49.930;8.606;2023-04-25T08:05:27;99623.19;;;9.44;100.00
21956;BME280;11142;49.930;8.606;2023-04-25T08:08:03;99627.25;;;10.24;100.00
21956;BME280;11142;49.930;8.606;2023-04-25T08:10:36;99626.91;;;10.03;100.00
21956;BME280;11142;49.930;8.606;2023-04-25T08:15:59;99637.75;;;11.30;100.00
21956;BME280;11142;49.930;8.606;2023-04-25T08:18:45;99630.63;;;12.01;95.69
21956;BME280;11142;49.930;8.606;2023-04-25T08:21:17;99645.75;;;12.18;84.75
21956;BME280;11142;49.930;8.606;2023-04-25T08:24:04;99640.69;;;12.17;97.40
21956;BME280;11142;49.930;8.606;2023-04-25T08:26:40;99644.97;;;12.72;86.49
21956;BME280;11142;49.930;8.606;2023-04-25T08:29:13;99641.31;;;11.05;91.65
21956;BME280;11142;49.930;8.606;2023-04-25T08:31:47;99650.09;;;11.96;83.53
21956;BME280;11142;49.930;8.606;2023-04-25T08:34:32;99655.53;;;11.47;91.23
21956;BME280;11142;49.930;8.606;2023-04-25T08:37:08;99659.31;;;11.19;93.11
21956;BME280;11142;49.930;8.606;2023-04-25T08:39:43;99657.03;;;11.03;96.42
21956;BME280;11142;49.930;8.606;2023-04-25T08:42:33;99654.88;;;11.32;93.83
21956;BME280;11142;49.930;8.606;2023-04-25T08:45:07;99656.53;;;11.33;95.33
21956;BME280;11142;49.930;8.606;2023-04-25T08:47:57;99662.19;;;11.62;93.03
21956;BME280;11142;49.930;8.606;2023-04-25T08:50:38;99665.72;;;12.18;82.82
21956;BME280;11142;49.930;8.606;2023-04-25T08:53:12;99664.22;;;11.69;90.31
21956;BME280;11142;49.930;8.606;2023-04-25T08:56:11;99678.56;;;11.86;85.54
21956;BME280;11142;49.930;8.606;2023-04-25T08:58:53;99680.91;;;11.43;83.99
21956;BME280;11142;49.930;8.606;2023-04-25T09:01:41;99683.72;;;11.40;90.63
21956;BME280;11142;49.930;8.606;2023-04-25T09:04:21;99683.44;;;11.32;90.69
21956;BME280;11142;49.930;8.606;2023-04-25T09:06:54;99685.66;;;11.49;82.11
21956;BME280;11142;49.930;8.606;2023-04-25T09:09:24;99699.31;;;12.10;82.76
21956;BME280;11142;49.930;8.606;2023-04-25T09:11:57;99691.75;;;11.37;78.42
21956;BME280;11142;49.930;8.606;2023-04-25T09:14:43;99700.16;;;11.17;81.52
21956;BME280;11142;49.930;8.606;2023-04-25T09:17:54;99694.06;;;11.88;80.62
21956;BME280;11142;49.930;8.606;2023-04-25T09:21:04;99698.00;;;12.04;83.39
21956;BME280;11142;49.930;8.606;2023-04-25T09:23:51;99695.97;;;11.86;85.87
21956;BME280;11142;49.930;8.606;2023-04-25T09:26:28;99698.59;;;12.19;84.91
21956;BME280;11142;49.930;8.606;2023-04-25T09:29:04;99706.84;;;11.91;82.51
21956;BME280;11142;49.930;8.606;2023-04-25T09:31:38;99706.06;;;12.57;82.23
21956;BME280;11142;49.930;8.606;2023-04-25T09:34:10;99709.75;;;11.51;83.21
21956;BME280;11142;49.930;8.606;2023-04-25T09:36:55;99719.50;;;11.13;89.78
21956;BME280;11142;49.930;8.606;2023-04-25T09:39:53;99714.06;;;11.63;86.53
21956;BME280;11142;49.930;8.606;2023-04-25T09:42:23;99717.41;;;12.22;82.73
21956;BME280;11142;49.930;8.606;2023-04-25T09:44:53;99735.25;;;11.70;78.45
21956;BME280;11142;49.930;8.606;2023-04-25T09:47:28;99737.16;;;12.25;76.38
21956;BME280;11142;49.930;8.606;2023-04-25T09:49:59;99734.84;;;11.87;69.19
21956;BME280;11142;49.930;8.606;2023-04-25T09:52:35;99734.28;;;11.95;70.15
21956;BME280;11142;49.930;8.606;2023-04-25T09:55:17;99732.06;;;12.35;72.42
21956;BME280;11142;49.930;8.606;2023-04-25T09:57:47;99736.19;;;12.15;72.25
21956;BME280;11142;49.930;8.606;2023-04-25T10:00:20;99749.19;;;10.73;81.58
21956;BME280;11142;49.930;8.606;2023-04-25T10:02:49;99744.34;;;11.04;81.28
21956;BME280;11142;49.930;8.606;2023-04-25T10:05:45;99744.00;;;10.73;87.81
21956;BME280;11142;49.930;8.606;2023-04-25T10:08:18;99751.09;;;10.94;81.40
21956;BME280;11142;49.930;8.606;2023-04-25T10:11:07;99759.16;;;11.15;80.30
21956;BME280;11142;49.930;8.606;2023-04-25T10:13:42;99748.44;;;11.91;77.28
21956;BME280;11142;49.930;8.606;2023-04-25T10:16:11;99762.47;;;11.17;83.86
21956;BME280;11142;49.930;8.606;2023-04-25T10:18:40;99751.31;;;12.21;80.86
21956;BME280;11142;49.930;8.606;2023-04-25T10:21:29;99758.25;;;12.77;75.71
21956;BME280;11142;49.930;8.606;2023-04-25T10:24:10;99757.41;;;11.87;75.81
21956;BME280;11142;49.930;8.606;2023-04-25T10:26:48;99764.44;;;11.73;77.15
21956;BME280;11142;49.930;8.606;2023-04-25T10:29:22;99768.41;;;11.90;77.88
21956;BME280;11142;49.930;8.606;2023-04-25T10:31:52;99756.25;;;11.43;79.06
21956;BME280;11142;49.930;8.606;2023-04-25T10:34:38;99757.50;;;12.20;77.00
21956;BME280;11142;49.930;8.606;2023-04-25T10:37:10;99768.41;;;12.92;72.78
21956;BME280;11142;49.930;8.606;2023-04-25T10:39:42;99768.91;;;12.52;72.74
21956;BME280;11142;49.930;8.606;2023-04-25T10:42:29;99765.03;;;12.12;74.73
21956;BME280;11142;49.930;8.606;2023-04-25T10:45:53;99765.16;;;11.28;81.63
21956;BME280;11142;49.930;8.606;2023-04-25T10:48:32;99762.66;;;11.74;81.53
21956;BME280;11142;49.930;8.606;2023-04-25T10:51:06;99763.13;;;11.08;84.95
21956;BME280;11142;49.930;8.606;2023-04-25T10:53:41;99775.47;;;11.64;83.59
21956;BME280;11142;49.930;8.606;2023-04-25T10:56:18;99778.59;;;12.61;73.62
21956;BME280;11142;49.930;8.606;2023-04-25T10:58:50;99778.72;;;12.71;73.90
21956;BME280;11142;49.930;8.606;2023-04-25T11:01:20;99773.16;;;13.09;63.62
21956;BME280;11142;49.930;8.606;2023-04-25T11:03:57;99786.41;;;13.06;60.35
21956;BME280;11142;49.930;8.606;2023-04-25T11:06:29;99778.88;;;16.92;47.87
21956;BME280;11142;49.930;8.606;2023-04-25T11:09:09;99781.34;;;14.82;52.65
21956;BME280;11142;49.930;8.606;2023-04-25T11:11:48;99777.06;;;14.81;54.15
21956;BME280;11142;49.930;8.606;2023-04-25T11:14:22;99774.25;;;15.04;53.18
21956;BME280;11142;49.930;8.606;2023-04-25T11:16:57;99766.38;;;14.33;59.45
21956;BME280;11142;49.930;8.606;2023-04-25T11:19:27;99779.53;;;15.23;53.80
21956;BME280;11142;49.930;8.606;2023-04-25T11:21:58;99780.59;;;15.79;51.22
21956;BME280;11142;49.930;8.606;2023-04-25T11:24:31;99780.13;;;13.94;55.78
21956;BME280;11142;49.930;8.606;2023-04-25T11:27:14;99779.75;;;12.46;67.50
21956;BME280;11142;49.930;8.606;2023-04-25T11:29:43;99783.38;;;12.21;73.42
21956;BME280;11142;49.930;8.606;2023-04-25T11:32:11;99780.34;;;12.39;74.22
21956;BME280;11142;49.930;8.606;2023-04-25T11:34:42;99791.16;;;13.12;70.75
21956;BME280;11142;49.930;8.606;2023-04-25T11:37:14;99792.63;;;12.25;68.64
21956;BME280;11142;49.930;8.606;2023-04-25T11:39:45;99786.63;;;12.36;70.24
21956;BME280;11142;49.930;8.606;2023-04-25T11:42:17;99791.03;;;12.01;73.80
21956;BME280;11142;49.930;8.606;2023-04-25T11:45:02;99795.41;;;12.79;67.96
21956;BME280;11142;49.930;8.606;2023-04-25T11:47:33;99802.16;;;12.82;66.93
21956;BME280;11142;49.930;8.606;2023-04-25T11:50:14;99797.31;;;13.00;62.94
21956;BME280;11142;49.930;8.606;2023-04-25T11:52:45;99792.47;;;14.13;58.38
21956;BME280;11142;49.930;8.606;2023-04-25T11:55:19;99793.28;;;13.93;59.06
21956;BME280;11142;49.930;8.606;2023-04-25T11:57:51;99804.47;;;13.83;59.46
21956;BME280;11142;49.930;8.606;2023-04-25T12:00:24;99813.72;;;12.56;67.37
21956;BME280;11142;49.930;8.606;2023-04-25T12:02:52;99815.94;;;12.27;72.99
21956;BME280;11142;49.930;8.606;2023-04-25T12:05:23;99810.22;;;12.22;69.47
21956;BME280;11142;49.930;8.606;2023-04-25T12:08:09;99821.63;;;11.73;70.96
21956;BME280;11142;49.930;8.606;2023-04-25T12:10:40;99827.72;;;11.49;74.88
21956;BME280;11142;49.930;8.606;2023-04-25T12:13:22;99818.03;;;11.63;75.87
21956;BME280;11142;49.930;8.606;2023-04-25T12:15:51;99822.09;;;12.02;74.96
21956;BME280;11142;49.930;8.606;2023-04-25T12:18:55;99823.94;;;12.81;69.54
21956;BME280;11142;49.930;8.606;2023-04-25T12:21:36;99828.78;;;12.74;68.40
21956;BME280;11142;49.930;8.606;2023-04-25T12:24:24;99829.44;;;11.61;73.86
21956;BME280;11142;49.930;8.606;2023-04-25T12:26:58;99826.44;;;11.91;74.40
21956;BME280;11142;49.930;8.606;2023-04-25T12:29:31;99827.69;;;11.61;74.83
21956;BME280;11142;49.930;8.606;2023-04-25T12:32:15;99828.19;;;12.14;71.38
21956;BME280;11142;49.930;8.606;2023-04-25T12:34:50;99825.47;;;12.95;67.13
21956;BME280;11142;49.930;8.606;2023-04-25T12:37:25;99840.53;;;12.34;67.28
21956;BME280;11142;49.930;8.606;2023-04-25T12:39:54;99826.97;;;13.42;65.61
21956;BME280;11142;49.930;8.606;2023-04-25T12:42:22;99838.19;;;13.75;60.85
21956;BME280;11142;49.930;8.606;2023-04-25T12:44:54;99839.13;;;13.32;60.46
21956;BME280;11142;49.930;8.606;2023-04-25T12:47:38;99834.31;;;14.22;56.09
21956;BME280;11142;49.930;8.606;2023-04-25T12:50:08;99837.59;;;16.43;48.27
21956;BME280;11142;49.930;8.606;2023-04-25T12:52:38;99834.97;;;16.53;44.41
21956;BME280;11142;49.930;8.606;2023-04-25T12:55:12;99835.25;;;15.14;45.51
21956;BME280;11142;49.930;8.606;2023-04-25T12:57:43;99836.63;;;13.30;50.97
21956;BME280;11142;49.930;8.606;2023-04-25T13:00:27;99849.84;;;12.83;53.02
21956;BME280;11142;49.930;8.606;2023-04-25T13:02:56;99838.25;;;13.53;52.35
21956;BME280;11142;49.930;8.606;2023-04-25T13:05:25;99842.28;;;13.02;54.22
21956;BME280;11142;49.930;8.606;2023-04-25T13:08:03;99846.38;;;14.55;50.55
21956;BME280;11142;49.930;8.606;2023-04-25T13:10:32;99847.00;;;13.95;51.23
21956;BME280;11142;49.930;8.606;2023-04-25T13:13:17;99840.38;;;14.95;48.90
21956;BME280;11142;49.930;8.606;2023-04-25T13:15:49;99839.88;;;14.18;51.94
21956;BME280;11142;49.930;8.606;2023-04-25T13:19:05;99859.63;;;12.57;53.85
21956;BME280;11142;49.930;8.606;2023-04-25T13:21:54;99851.69;;;12.47;58.15
21956;BME280;11142;49.930;8.606;2023-04-25T13:24:28;99857.44;;;12.29;62.52
21956;BME280;11142;49.930;8.606;2023-04-25T13:27:04;99854.19;;;12.60;59.18
21956;BME280;11142;49.930;8.606;2023-04-25T13:29:54;99853.91;;;12.06;60.49
21956;BME280;11142;49.930;8.606;2023-04-25T13:32:38;99853.69;;;12.09;56.46
21956;BME280;11142;49.930;8.606;2023-04-25T13:35:24;99853.06;;;12.29;58.41
21956;BME280;11142;49.930;8.606;2023-04-25T13:37:52;99849.38;;;14.51;51.13
21956;BME280;11142;49.930;8.606;2023-04-25T13:40:35;99851.00;;;13.99;49.65
21956;BME280;11142;49.930;8.606;2023-04-25T13:43:04;99846.91;;;12.98;50.41
21956;BME280;11142;49.930;8.606;2023-04-25T13:45:44;99855.91;;;12.26;55.15
21956;BME280;11142;49.930;8.606;2023-04-25T13:48:28;99860.41;;;12.35;55.42
21956;BME280;11142;49.930;8.606;2023-04-25T13:51:36;99863.94;;;12.80;53.35
21956;BME280;11142;49.930;8.606;2023-04-25T13:54:05;99864.13;;;13.12;55.06
21956;BME280;11142;49.930;8.606;2023-04-25T13:56:43;99861.91;;;12.72;52.57